sensor_id;sensor_type;location;lat;lon;timestamp;P1;durP1;ratioP1;P2;durP2;ratioP2
46090;SDS011;31826;53.572;10.170;2023-07-29T00:02:08;6.72;;;2.65;;
46090;SDS011;31826;53.572;10.170;2023-07-29T00:04:35;5.50;;;2.50;;
46090;SDS011;31826;53.572;10.170;2023-07-29T00:07:00;6.07;;;2.80;;
46090;SDS011;31826;53.572;10.170;2023-07-29T00:09:26;4.97;;;2.55;;
46090;SDS011;31826;53.572;10.170;2023-07-29T00:11:52;5.00;;;2.33;;
46090;SDS011;31826;53.572;10.170;2023-07-29T00:14:17;7.27;;;2.50;;
46090;SDS011;31826;53.572;10.170;2023-07-29T00:16:43;5.93;;;2.50;;
46090;SDS011;31826;53.572;10.170;2023-07-29T00:19:09;6.80;;;2.72;;
46090;SDS011;31826;53.572;10.170;2023-07-29T00:21:35;9.45;;;3.20;;
46090;SDS011;31826;53.572;10.170;2023-07-29T00:24:00;8.50;;;2.80;;
46090;SDS011;31826;53.572;10.170;2023-07-29T00:26:26;5.57;;;2.50;;
46090;SDS011;31826;53.572;10.170;2023-07-29T00:28:54;5.32;;;2.50;;
46090;SDS011;31826;53.572;10.170;2023-07-29T00:31:20;5.35;;;2.53;;
46090;SDS011;31826;53.572;10.170;2023-07-29T00:33:46;4.70;;;2.30;;
46090;SDS011;31826;53.572;10.170;2023-07-29T00:36:12;8.73;;;2.60;;
46090;SDS011;31826;53.572;10.170;2023-07-29T00:38:38;5.57;;;2.30;;
46090;SDS011;31826;53.572;10.170;2023-07-29T00:41:03;7.80;;;2.60;;
46090;SDS011;31826;53.572;10.170;2023-07-29T00:43:30;5.83;;;2.53;;
46090;SDS011;31826;53.572;10.170;2023-07-29T00:45:56;3.83;;;2.20;;
46090;SDS011;31826;53.572;10.170;2023-07-29T00:48:25;5.10;;;2.75;;
46090;SDS011;31826;53.572;10.170;2023-07-29T00:50:51;7.00;;;2.63;;
46090;SDS011;31826;53.572;10.170;2023-07-29T00:53:17;5.77;;;2.77;;
46090;SDS011;31826;53.572;10.170;2023-07-29T00:55:43;7.93;;;2.90;;
46090;SDS011;31826;53.572;10.170;2023-07-29T00:58:09;8.70;;;3.30;;
46090;SDS011;31826;53.572;10.170;2023-07-29T01:00:35;6.22;;;3.08;;
46090;SDS011;31826;53.572;10.170;2023-07-29T01:03:01;6.70;;;3.00;;
46090;SDS011;31826;53.572;10.170;2023-07-29T01:05:29;6.25;;;2.78;;
46090;SDS011;31826;53.572;10.170;2023-07-29T01:18:21;7.65;;;3.13;;
46090;SDS011;31826;53.572;10.170;2023-07-29T01:20:58;7.40;;;3.22;;
46090;SDS011;31826;53.572;10.170;2023-07-29T01:23:33;6.53;;;3.30;;
46090;SDS011;31826;53.572;10.170;2023-07-29T01:26:00;7.47;;;3.53;;
46090;SDS011;31826;53.572;10.170;2023-07-29T01:28:26;6.78;;;3.65;;
46090;SDS011;31826;53.572;10.170;2023-07-29T01:30:54;6.40;;;3.30;;
46090;SDS011;31826;53.572;10.170;2023-07-29T01:33:26;7.63;;;3.60;;
46090;SDS011;31826;53.572;10.170;2023-07-29T01:36:02;7.28;;;3.75;;
46090;SDS011;31826;53.572;10.170;2023-07-29T01:38:34;8.13;;;3.60;;
46090;SDS011;31826;53.572;10.170;2023-07-29T01:41:02;8.13;;;3.60;;
46090;SDS011;31826;53.572;10.170;2023-07-29T01:43:29;8.05;;;4.07;;
46090;SDS011;31826;53.572;10.170;2023-07-29T01:45:55;8.10;;;3.55;;
46090;SDS011;31826;53.572;10.170;2023-07-29T01:48:21;7.25;;;3.65;;
46090;SDS011;31826;53.572;10.170;2023-07-29T01:50:46;9.33;;;4.00;;
46090;SDS011;31826;53.572;10.170;2023-07-29T01:53:12;8.00;;;4.00;;
46090;SDS011;31826;53.572;10.170;2023-07-29T01:55:38;8.45;;;3.70;;
46090;SDS011;31826;53.572;10.170;2023-07-29T01:58:04;9.07;;;3.88;;
46090;SDS011;31826;53.572;10.170;2023-07-29T02:00:30;8.10;;;3.90;;
46090;SDS011;31826;53.572;10.170;2023-07-29T02:02:55;7.88;;;3.70;;
46090;SDS011;31826;53.572;10.170;2023-07-29T02:07:49;8.45;;;4.30;;
46090;SDS011;31826;53.572;10.170;2023-07-29T02:10:15;9.27;;;4.20;;
46090;SDS011;31826;53.572;10.170;2023-07-29T02:12:41;9.17;;;3.90;;
46090;SDS011;31826;53.572;10.170;2023-07-29T02:15:06;10.13;;;4.30;;
46090;SDS011;31826;53.572;10.170;2023-07-29T02:17:33;10.53;;;4.40;;
46090;SDS011;31826;53.572;10.170;2023-07-29T02:19:58;7.97;;;3.80;;
46090;SDS011;31826;53.572;10.170;2023-07-29T02:22:24;9.27;;;4.70;;
46090;SDS011;31826;53.572;10.170;2023-07-29T02:24:50;8.10;;;4.07;;
46090;SDS011;31826;53.572;10.170;2023-07-29T02:27:16;8.65;;;4.05;;
46090;SDS011;31826;53.572;10.170;2023-07-29T02:29:41;8.93;;;4.32;;
46090;SDS011;31826;53.572;10.170;2023-07-29T02:32:07;7.77;;;4.03;;
46090;SDS011;31826;53.572;10.170;2023-07-29T02:34:33;8.02;;;4.28;;
46090;SDS011;31826;53.572;10.170;2023-07-29T02:36:59;9.52;;;4.30;;
46090;SDS011;31826;53.572;10.170;2023-07-29T02:39:25;9.77;;;4.53;;
46090;SDS011;31826;53.572;10.170;2023-07-29T02:41:51;10.53;;;4.60;;
46090;SDS011;31826;53.572;10.170;2023-07-29T02:44:16;10.00;;;4.83;;
46090;SDS011;31826;53.572;10.170;2023-07-29T02:46:42;9.83;;;5.20;;
46090;SDS011;31826;53.572;10.170;2023-07-29T02:49:08;8.33;;;4.63;;
46090;SDS011;31826;53.572;10.170;2023-07-29T02:51:34;11.27;;;5.32;;
46090;SDS011;31826;53.572;10.170;2023-07-29T02:53:59;10.57;;;5.22;;
46090;SDS011;31826;53.572;10.170;2023-07-29T02:56:25;10.48;;;5.13;;
46090;SDS011;31826;53.572;10.170;2023-07-29T02:58:51;9.70;;;5.50;;
46090;SDS011;31826;53.572;10.170;2023-07-29T03:01:17;10.93;;;5.77;;
46090;SDS011;31826;53.572;10.170;2023-07-29T03:03:44;10.38;;;5.03;;
46090;SDS011;31826;53.572;10.170;2023-07-29T03:06:11;12.75;;;5.45;;
46090;SDS011;31826;53.572;10.170;2023-07-29T03:08:38;10.10;;;5.97;;
46090;SDS011;31826;53.572;10.170;2023-07-29T03:11:05;11.07;;;6.00;;
46090;SDS011;31826;53.572;10.170;2023-07-29T03:13:32;9.45;;;5.07;;
46090;SDS011;31826;53.572;10.170;2023-07-29T03:16:05;12.15;;;5.90;;
46090;SDS011;31826;53.572;10.170;2023-07-29T03:18:30;12.73;;;6.40;;
46090;SDS011;31826;53.572;10.170;2023-07-29T03:20:56;13.25;;;5.93;;
46090;SDS011;31826;53.572;10.170;2023-07-29T03:23:22;12.43;;;6.17;;
46090;SDS011;31826;53.572;10.170;2023-07-29T03:25:48;12.10;;;6.20;;
46090;SDS011;31826;53.572;10.170;2023-07-29T03:28:16;11.70;;;6.05;;
46090;SDS011;31826;53.572;10.170;2023-07-29T03:30:42;10.48;;;5.88;;
46090;SDS011;31826;53.572;10.170;2023-07-29T03:33:07;12.40;;;6.30;;
46090;SDS011;31826;53.572;10.170;2023-07-29T03:35:33;12.23;;;6.37;;
46090;SDS011;31826;53.572;10.170;2023-07-29T03:37:59;12.10;;;6.55;;
46090;SDS011;31826;53.572;10.170;2023-07-29T03:40:24;11.73;;;6.65;;
46090;SDS011;31826;53.572;10.170;2023-07-29T03:42:50;13.70;;;6.85;;
46090;SDS011;31826;53.572;10.170;2023-07-29T03:45:16;12.03;;;6.50;;
46090;SDS011;31826;53.572;10.170;2023-07-29T03:47:41;16.50;;;7.53;;
46090;SDS011;31826;53.572;10.170;2023-07-29T03:50:07;14.10;;;7.13;;
46090;SDS011;31826;53.572;10.170;2023-07-29T03:52:33;13.43;;;7.25;;
46090;SDS011;31826;53.572;10.170;2023-07-29T03:54:59;12.33;;;7.27;;
46090;SDS011;31826;53.572;10.170;2023-07-29T03:57:25;14.68;;;7.63;;
46090;SDS011;31826;53.572;10.170;2023-07-29T03:59:50;14.57;;;7.90;;
46090;SDS011;31826;53.572;10.170;2023-07-29T04:02:16;15.83;;;8.00;;
46090;SDS011;31826;53.572;10.170;2023-07-29T04:04:42;17.97;;;8.23;;
46090;SDS011;31826;53.572;10.170;2023-07-29T04:07:09;16.77;;;8.40;;
46090;SDS011;31826;53.572;10.170;2023-07-29T04:09:34;17.40;;;9.07;;
46090;SDS011;31826;53.572;10.170;2023-07-29T04:12:00;14.57;;;8.15;;
46090;SDS011;31826;53.572;10.170;2023-07-29T04:14:26;14.15;;;7.57;;
46090;SDS011;31826;53.572;10.170;2023-07-29T04:16:52;15.60;;;8.10;;
46090;SDS011;31826;53.572;10.170;2023-07-29T04:19:18;15.55;;;8.40;;
46090;SDS011;31826;53.572;10.170;2023-07-29T04:21:43;18.65;;;8.38;;
46090;SDS011;31826;53.572;10.170;2023-07-29T04:24:09;17.30;;;8.43;;
46090;SDS011;31826;53.572;10.170;2023-07-29T04:26:35;17.03;;;9.70;;
46090;SDS011;31826;53.572;10.170;2023-07-29T04:29:00;16.87;;;9.20;;
46090;SDS011;31826;53.572;10.170;2023-07-29T04:31:26;19.15;;;9.18;;
46090;SDS011;31826;53.572;10.170;2023-07-29T04:33:52;19.55;;;9.57;;
46090;SDS011;31826;53.572;10.170;2023-07-29T04:36:17;19.33;;;9.80;;
46090;SDS011;31826;53.572;10.170;2023-07-29T04:38:43;19.90;;;10.47;;
46090;SDS011;31826;53.572;10.170;2023-07-29T04:41:09;21.25;;;10.90;;
46090;SDS011;31826;53.572;10.170;2023-07-29T04:43:36;20.65;;;10.98;;
46090;SDS011;31826;53.572;10.170;2023-07-29T04:46:01;20.52;;;10.40;;
46090;SDS011;31826;53.572;10.170;2023-07-29T04:48:28;20.65;;;11.18;;
46090;SDS011;31826;53.572;10.170;2023-07-29T04:50:53;22.27;;;11.40;;
46090;SDS011;31826;53.572;10.170;2023-07-29T04:53:19;20.73;;;12.25;;
46090;SDS011;31826;53.572;10.170;2023-07-29T04:55:46;21.95;;;11.57;;
46090;SDS011;31826;53.572;10.170;2023-07-29T04:58:11;21.60;;;11.93;;
46090;SDS011;31826;53.572;10.170;2023-07-29T05:00:37;24.40;;;12.17;;
46090;SDS011;31826;53.572;10.170;2023-07-29T05:03:03;21.83;;;11.77;;
46090;SDS011;31826;53.572;10.170;2023-07-29T05:05:28;22.95;;;12.25;;
46090;SDS011;31826;53.572;10.170;2023-07-29T05:07:54;25.10;;;12.05;;
46090;SDS011;31826;53.572;10.170;2023-07-29T05:10:20;22.03;;;11.37;;
46090;SDS011;31826;53.572;10.170;2023-07-29T05:12:45;20.77;;;11.37;;
46090;SDS011;31826;53.572;10.170;2023-07-29T05:15:11;20.93;;;11.43;;
46090;SDS011;31826;53.572;10.170;2023-07-29T05:17:37;22.70;;;13.05;;
46090;SDS011;31826;53.572;10.170;2023-07-29T05:20:03;22.50;;;13.00;;
46090;SDS011;31826;53.572;10.170;2023-07-29T05:22:29;23.25;;;13.05;;
46090;SDS011;31826;53.572;10.170;2023-07-29T05:24:55;24.20;;;13.77;;
46090;SDS011;31826;53.572;10.170;2023-07-29T05:27:20;24.17;;;13.75;;
46090;SDS011;31826;53.572;10.170;2023-07-29T05:29:46;25.65;;;14.07;;
46090;SDS011;31826;53.572;10.170;2023-07-29T05:32:12;25.87;;;13.63;;
46090;SDS011;31826;53.572;10.170;2023-07-29T05:34:37;29.67;;;14.93;;
46090;SDS011;31826;53.572;10.170;2023-07-29T05:37:03;29.15;;;15.68;;
46090;SDS011;31826;53.572;10.170;2023-07-29T05:39:29;25.97;;;14.30;;
46090;SDS011;31826;53.572;10.170;2023-07-29T05:41:57;29.02;;;16.00;;
46090;SDS011;31826;53.572;10.170;2023-07-29T05:44:23;28.30;;;15.07;;
46090;SDS011;31826;53.572;10.170;2023-07-29T05:46:48;25.95;;;14.38;;
46090;SDS011;31826;53.572;10.170;2023-07-29T05:49:14;26.27;;;14.45;;
46090;SDS011;31826;53.572;10.170;2023-07-29T05:51:40;26.73;;;13.97;;
46090;SDS011;31826;53.572;10.170;2023-07-29T05:54:05;25.17;;;13.90;;
46090;SDS011;31826;53.572;10.170;2023-07-29T05:56:31;28.75;;;14.90;;
46090;SDS011;31826;53.572;10.170;2023-07-29T05:58:57;27.13;;;15.25;;
46090;SDS011;31826;53.572;10.170;2023-07-29T06:01:22;29.02;;;16.10;;
46090;SDS011;31826;53.572;10.170;2023-07-29T06:03:48;29.20;;;15.73;;
46090;SDS011;31826;53.572;10.170;2023-07-29T06:06:15;32.97;;;16.83;;
46090;SDS011;31826;53.572;10.170;2023-07-29T06:08:40;27.88;;;16.05;;
46090;SDS011;31826;53.572;10.170;2023-07-29T06:11:06;32.73;;;16.73;;
46090;SDS011;31826;53.572;10.170;2023-07-29T06:13:32;30.03;;;17.40;;
46090;SDS011;31826;53.572;10.170;2023-07-29T06:15:58;29.70;;;17.07;;
46090;SDS011;31826;53.572;10.170;2023-07-29T06:18:24;30.07;;;17.37;;
46090;SDS011;31826;53.572;10.170;2023-07-29T06:20:49;29.15;;;17.05;;
46090;SDS011;31826;53.572;10.170;2023-07-29T06:23:15;31.75;;;16.75;;
46090;SDS011;31826;53.572;10.170;2023-07-29T06:25:41;31.07;;;17.30;;
46090;SDS011;31826;53.572;10.170;2023-07-29T06:28:08;29.90;;;17.23;;
46090;SDS011;31826;53.572;10.170;2023-07-29T06:30:34;31.02;;;17.02;;
46090;SDS011;31826;53.572;10.170;2023-07-29T06:33:00;29.30;;;16.50;;
46090;SDS011;31826;53.572;10.170;2023-07-29T06:35:26;26.00;;;15.30;;
46090;SDS011;31826;53.572;10.170;2023-07-29T06:37:51;26.55;;;15.25;;
46090;SDS011;31826;53.572;10.170;2023-07-29T06:40:17;25.50;;;15.45;;
46090;SDS011;31826;53.572;10.170;2023-07-29T06:42:43;26.63;;;14.23;;
46090;SDS011;31826;53.572;10.170;2023-07-29T06:45:08;23.97;;;13.77;;
46090;SDS011;31826;53.572;10.170;2023-07-29T06:47:35;26.42;;;14.95;;
46090;SDS011;31826;53.572;10.170;2023-07-29T06:50:01;24.30;;;13.43;;
46090;SDS011;31826;53.572;10.170;2023-07-29T06:52:26;25.02;;;13.75;;
46090;SDS011;31826;53.572;10.170;2023-07-29T06:54:52;22.10;;;12.63;;
46090;SDS011;31826;53.572;10.170;2023-07-29T06:57:18;23.07;;;13.63;;
46090;SDS011;31826;53.572;10.170;2023-07-29T06:59:43;22.93;;;13.43;;
46090;SDS011;31826;53.572;10.170;2023-07-29T07:02:09;20.80;;;12.43;;
46090;SDS011;31826;53.572;10.170;2023-07-29T07:04:35;21.80;;;12.82;;
46090;SDS011;31826;53.572;10.170;2023-07-29T07:07:00;23.47;;;13.67;;
46090;SDS011;31826;53.572;10.170;2023-07-29T07:09:26;22.83;;;13.07;;
46090;SDS011;31826;53.572;10.170;2023-07-29T07:11:52;23.07;;;12.87;;
46090;SDS011;31826;53.572;10.170;2023-07-29T07:14:17;18.58;;;11.23;;
46090;SDS011;31826;53.572;10.170;2023-07-29T07:16:43;22.60;;;12.90;;
46090;SDS011;31826;53.572;10.170;2023-07-29T07:19:09;20.02;;;11.65;;
46090;SDS011;31826;53.572;10.170;2023-07-29T07:21:35;21.77;;;12.10;;
46090;SDS011;31826;53.572;10.170;2023-07-29T07:24:01;20.52;;;11.77;;
46090;SDS011;31826;53.572;10.170;2023-07-29T07:26:27;21.48;;;11.82;;
46090;SDS011;31826;53.572;10.170;2023-07-29T07:28:53;20.70;;;12.38;;
46090;SDS011;31826;53.572;10.170;2023-07-29T07:31:19;22.05;;;11.82;;
46090;SDS011;31826;53.572;10.170;2023-07-29T07:33:44;20.93;;;11.80;;
46090;SDS011;31826;53.572;10.170;2023-07-29T07:36:10;20.77;;;11.90;;
46090;SDS011;31826;53.572;10.170;2023-07-29T07:38:36;23.15;;;13.05;;
46090;SDS011;31826;53.572;10.170;2023-07-29T07:41:02;21.20;;;12.70;;
46090;SDS011;31826;53.572;10.170;2023-07-29T07:43:27;21.42;;;12.45;;
46090;SDS011;31826;53.572;10.170;2023-07-29T07:46:00;20.33;;;12.90;;
46090;SDS011;31826;53.572;10.170;2023-07-29T07:48:29;21.33;;;12.25;;
46090;SDS011;31826;53.572;10.170;2023-07-29T07:50:55;22.42;;;12.00;;
46090;SDS011;31826;53.572;10.170;2023-07-29T07:53:21;20.88;;;12.25;;
46090;SDS011;31826;53.572;10.170;2023-07-29T07:55:46;17.53;;;10.97;;
46090;SDS011;31826;53.572;10.170;2023-07-29T07:58:12;18.67;;;11.20;;
46090;SDS011;31826;53.572;10.170;2023-07-29T08:00:38;21.00;;;10.00;;
46090;SDS011;31826;53.572;10.170;2023-07-29T08:03:04;16.15;;;9.60;;
46090;SDS011;31826;53.572;10.170;2023-07-29T08:05:29;15.60;;;9.13;;
46090;SDS011;31826;53.572;10.170;2023-07-29T08:07:55;15.63;;;8.90;;
46090;SDS011;31826;53.572;10.170;2023-07-29T08:10:22;14.43;;;8.30;;
46090;SDS011;31826;53.572;10.170;2023-07-29T08:12:47;14.73;;;8.25;;
46090;SDS011;31826;53.572;10.170;2023-07-29T08:15:13;15.35;;;8.00;;
46090;SDS011;31826;53.572;10.170;2023-07-29T08:17:39;15.27;;;7.93;;
46090;SDS011;31826;53.572;10.170;2023-07-29T08:20:05;15.17;;;8.00;;
46090;SDS011;31826;53.572;10.170;2023-07-29T08:22:31;13.13;;;7.55;;
46090;SDS011;31826;53.572;10.170;2023-07-29T08:24:57;13.07;;;7.15;;
46090;SDS011;31826;53.572;10.170;2023-07-29T08:27:22;12.10;;;6.87;;
46090;SDS011;31826;53.572;10.170;2023-07-29T08:29:48;12.03;;;7.10;;
46090;SDS011;31826;53.572;10.170;2023-07-29T08:32:14;13.20;;;6.55;;
46090;SDS011;31826;53.572;10.170;2023-07-29T08:34:39;12.68;;;7.25;;
46090;SDS011;31826;53.572;10.170;2023-07-29T08:37:05;13.93;;;7.37;;
46090;SDS011;31826;53.572;10.170;2023-07-29T08:39:31;12.10;;;6.70;;
46090;SDS011;31826;53.572;10.170;2023-07-29T08:44:26;11.43;;;6.60;;
46090;SDS011;31826;53.572;10.170;2023-07-29T08:46:55;12.95;;;7.07;;
46090;SDS011;31826;53.572;10.170;2023-07-29T08:49:22;11.35;;;6.53;;
46090;SDS011;31826;53.572;10.170;2023-07-29T08:51:49;11.43;;;6.63;;
46090;SDS011;31826;53.572;10.170;2023-07-29T08:54:17;12.23;;;6.75;;
46090;SDS011;31826;53.572;10.170;2023-07-29T08:56:44;14.60;;;6.60;;
46090;SDS011;31826;53.572;10.170;2023-07-29T08:59:11;12.25;;;6.60;;
46090;SDS011;31826;53.572;10.170;2023-07-29T09:01:38;11.15;;;6.03;;
46090;SDS011;31826;53.572;10.170;2023-07-29T09:04:04;10.00;;;5.60;;
46090;SDS011;31826;53.572;10.170;2023-07-29T09:06:31;11.20;;;5.80;;
46090;SDS011;31826;53.572;10.170;2023-07-29T09:08:58;13.85;;;6.20;;
46090;SDS011;31826;53.572;10.170;2023-07-29T09:11:24;10.85;;;6.20;;
46090;SDS011;31826;53.572;10.170;2023-07-29T09:13:51;9.80;;;5.63;;
46090;SDS011;31826;53.572;10.170;2023-07-29T09:16:18;11.55;;;5.85;;
46090;SDS011;31826;53.572;10.170;2023-07-29T09:18:47;10.55;;;6.10;;
46090;SDS011;31826;53.572;10.170;2023-07-29T09:21:15;11.73;;;5.97;;
46090;SDS011;31826;53.572;10.170;2023-07-29T09:23:43;12.10;;;6.57;;
46090;SDS011;31826;53.572;10.170;2023-07-29T09:26:09;12.80;;;6.65;;
46090;SDS011;31826;53.572;10.170;2023-07-29T09:28:37;11.68;;;6.60;;
46090;SDS011;31826;53.572;10.170;2023-07-29T09:31:03;11.33;;;6.30;;
46090;SDS011;31826;53.572;10.170;2023-07-29T09:33:32;12.27;;;6.07;;
46090;SDS011;31826;53.572;10.170;2023-07-29T09:36:01;11.23;;;6.47;;
46090;SDS011;31826;53.572;10.170;2023-07-29T09:38:36;11.65;;;6.05;;
46090;SDS011;31826;53.572;10.170;2023-07-29T09:41:02;12.05;;;6.97;;
46090;SDS011;31826;53.572;10.170;2023-07-29T09:43:29;12.15;;;5.60;;
46090;SDS011;31826;53.572;10.170;2023-07-29T09:45:59;10.27;;;6.10;;
46090;SDS011;31826;53.572;10.170;2023-07-29T09:48:26;10.75;;;5.22;;
46090;SDS011;31826;53.572;10.170;2023-07-29T09:50:53;9.45;;;5.60;;
46090;SDS011;31826;53.572;10.170;2023-07-29T09:53:19;9.43;;;5.27;;
46090;SDS011;31826;53.572;10.170;2023-07-29T09:55:46;13.95;;;5.60;;
46090;SDS011;31826;53.572;10.170;2023-07-29T09:58:19;11.80;;;5.00;;
46090;SDS011;31826;53.572;10.170;2023-07-29T10:00:52;11.48;;;5.57;;
46090;SDS011;31826;53.572;10.170;2023-07-29T10:03:20;10.70;;;4.90;;
46090;SDS011;31826;53.572;10.170;2023-07-29T10:05:47;9.50;;;5.22;;
46090;SDS011;31826;53.572;10.170;2023-07-29T10:08:13;9.85;;;4.93;;
46090;SDS011;31826;53.572;10.170;2023-07-29T10:10:42;10.10;;;5.80;;
46090;SDS011;31826;53.572;10.170;2023-07-29T10:13:08;10.98;;;5.80;;
46090;SDS011;31826;53.572;10.170;2023-07-29T10:15:34;9.90;;;5.68;;
46090;SDS011;31826;53.572;10.170;2023-07-29T10:18:01;11.32;;;5.05;;
46090;SDS011;31826;53.572;10.170;2023-07-29T10:20:27;11.68;;;5.15;;
46090;SDS011;31826;53.572;10.170;2023-07-29T10:22:55;9.65;;;4.70;;
46090;SDS011;31826;53.572;10.170;2023-07-29T10:25:24;8.73;;;4.57;;
46090;SDS011;31826;53.572;10.170;2023-07-29T10:27:56;7.95;;;3.92;;
46090;SDS011;31826;53.572;10.170;2023-07-29T10:30:25;7.82;;;3.60;;
46090;SDS011;31826;53.572;10.170;2023-07-29T10:32:53;8.73;;;3.80;;
46090;SDS011;31826;53.572;10.170;2023-07-29T10:35:23;9.25;;;3.67;;
46090;SDS011;31826;53.572;10.170;2023-07-29T10:37:50;6.90;;;3.50;;
46090;SDS011;31826;53.572;10.170;2023-07-29T10:40:18;5.57;;;2.80;;
46090;SDS011;31826;53.572;10.170;2023-07-29T10:43:10;4.28;;;2.63;;
46090;SDS011;31826;53.572;10.170;2023-07-29T10:45:37;4.82;;;2.50;;
46090;SDS011;31826;53.572;10.170;2023-07-29T10:54:12;5.72;;;2.15;;
46090;SDS011;31826;53.572;10.170;2023-07-29T10:56:42;3.45;;;2.20;;
46090;SDS011;31826;53.572;10.170;2023-07-29T11:01:38;5.53;;;2.17;;
46090;SDS011;31826;53.572;10.170;2023-07-29T11:09:42;4.80;;;2.07;;
46090;SDS011;31826;53.572;10.170;2023-07-29T11:20:07;4.95;;;2.28;;
46090;SDS011;31826;53.572;10.170;2023-07-29T11:22:34;3.75;;;2.38;;
46090;SDS011;31826;53.572;10.170;2023-07-29T11:25:01;3.60;;;2.03;;
46090;SDS011;31826;53.572;10.170;2023-07-29T11:27:27;4.45;;;2.20;;
46090;SDS011;31826;53.572;10.170;2023-07-29T11:29:59;4.13;;;2.10;;
46090;SDS011;31826;53.572;10.170;2023-07-29T11:32:27;4.18;;;2.00;;
46090;SDS011;31826;53.572;10.170;2023-07-29T11:34:53;4.53;;;2.17;;
46090;SDS011;31826;53.572;10.170;2023-07-29T11:37:19;3.70;;;1.85;;
46090;SDS011;31826;53.572;10.170;2023-07-29T11:39:46;3.17;;;2.20;;
46090;SDS011;31826;53.572;10.170;2023-07-29T11:42:13;5.57;;;2.30;;
46090;SDS011;31826;53.572;10.170;2023-07-29T11:44:39;3.08;;;1.85;;
46090;SDS011;31826;53.572;10.170;2023-07-29T11:47:09;5.55;;;1.90;;
46090;SDS011;31826;53.572;10.170;2023-07-29T11:49:35;4.10;;;2.10;;
46090;SDS011;31826;53.572;10.170;2023-07-29T11:52:03;4.43;;;2.15;;
46090;SDS011;31826;53.572;10.170;2023-07-29T11:54:30;4.25;;;2.00;;
46090;SDS011;31826;53.572;10.170;2023-07-29T11:56:56;4.18;;;2.17;;
46090;SDS011;31826;53.572;10.170;2023-07-29T11:59:22;3.50;;;2.00;;
46090;SDS011;31826;53.572;10.170;2023-07-29T12:01:48;3.03;;;1.80;;
46090;SDS011;31826;53.572;10.170;2023-07-29T12:04:14;4.70;;;2.33;;
46090;SDS011;31826;53.572;10.170;2023-07-29T12:06:41;3.78;;;2.35;;
46090;SDS011;31826;53.572;10.170;2023-07-29T12:09:07;5.43;;;2.35;;
46090;SDS011;31826;53.572;10.170;2023-07-29T12:11:34;5.22;;;2.50;;
46090;SDS011;31826;53.572;10.170;2023-07-29T12:14:00;4.80;;;2.25;;
46090;SDS011;31826;53.572;10.170;2023-07-29T12:16:26;5.68;;;2.67;;
46090;SDS011;31826;53.572;10.170;2023-07-29T12:18:51;5.38;;;2.30;;
46090;SDS011;31826;53.572;10.170;2023-07-29T12:21:20;6.53;;;2.55;;
46090;SDS011;31826;53.572;10.170;2023-07-29T12:23:46;4.20;;;2.10;;
46090;SDS011;31826;53.572;10.170;2023-07-29T12:26:12;3.87;;;2.17;;
46090;SDS011;31826;53.572;10.170;2023-07-29T12:28:37;6.32;;;2.40;;
46090;SDS011;31826;53.572;10.170;2023-07-29T12:31:06;4.88;;;2.35;;
46090;SDS011;31826;53.572;10.170;2023-07-29T12:33:36;5.27;;;2.10;;
46090;SDS011;31826;53.572;10.170;2023-07-29T12:36:07;4.68;;;2.15;;
46090;SDS011;31826;53.572;10.170;2023-07-29T12:38:32;4.45;;;2.05;;
46090;SDS011;31826;53.572;10.170;2023-07-29T12:40:58;4.00;;;2.17;;
46090;SDS011;31826;53.572;10.170;2023-07-29T12:43:24;3.53;;;2.03;;
46090;SDS011;31826;53.572;10.170;2023-07-29T12:45:51;3.55;;;2.05;;
46090;SDS011;31826;53.572;10.170;2023-07-29T12:48:17;4.50;;;2.13;;
46090;SDS011;31826;53.572;10.170;2023-07-29T12:50:43;3.63;;;2.10;;
46090;SDS011;31826;53.572;10.170;2023-07-29T12:53:09;4.13;;;1.90;;
46090;SDS011;31826;53.572;10.170;2023-07-29T12:55:38;6.15;;;2.30;;
46090;SDS011;31826;53.572;10.170;2023-07-29T12:58:04;3.83;;;1.90;;
46090;SDS011;31826;53.572;10.170;2023-07-29T13:00:30;3.97;;;1.98;;
46090;SDS011;31826;53.572;10.170;2023-07-29T13:02:55;3.78;;;1.83;;
46090;SDS011;31826;53.572;10.170;2023-07-29T13:05:21;4.93;;;1.85;;
46090;SDS011;31826;53.572;10.170;2023-07-29T13:07:47;3.87;;;1.50;;
46090;SDS011;31826;53.572;10.170;2023-07-29T13:10:13;4.60;;;1.80;;
46090;SDS011;31826;53.572;10.170;2023-07-29T13:12:39;3.80;;;1.45;;
46090;SDS011;31826;53.572;10.170;2023-07-29T13:15:05;3.30;;;1.73;;
46090;SDS011;31826;53.572;10.170;2023-07-29T13:17:32;4.50;;;1.90;;
46090;SDS011;31826;53.572;10.170;2023-07-29T13:19:58;3.75;;;1.75;;
46090;SDS011;31826;53.572;10.170;2023-07-29T13:22:24;2.93;;;1.50;;
46090;SDS011;31826;53.572;10.170;2023-07-29T13:24:50;2.63;;;1.60;;
46090;SDS011;31826;53.572;10.170;2023-07-29T13:27:16;1.75;;;1.25;;
46090;SDS011;31826;53.572;10.170;2023-07-29T13:29:41;2.83;;;1.55;;
46090;SDS011;31826;53.572;10.170;2023-07-29T13:32:08;2.43;;;1.30;;
46090;SDS011;31826;53.572;10.170;2023-07-29T13:34:34;3.70;;;1.57;;
46090;SDS011;31826;53.572;10.170;2023-07-29T13:37:00;3.53;;;1.60;;
46090;SDS011;31826;53.572;10.170;2023-07-29T13:39:26;2.77;;;1.50;;
46090;SDS011;31826;53.572;10.170;2023-07-29T13:41:52;2.73;;;1.30;;
46090;SDS011;31826;53.572;10.170;2023-07-29T13:44:19;2.17;;;1.50;;
46090;SDS011;31826;53.572;10.170;2023-07-29T13:46:45;1.63;;;1.15;;
46090;SDS011;31826;53.572;10.170;2023-07-29T13:49:10;2.70;;;1.50;;
46090;SDS011;31826;53.572;10.170;2023-07-29T13:51:36;2.90;;;1.42;;
46090;SDS011;31826;53.572;10.170;2023-07-29T13:54:02;2.47;;;1.50;;
46090;SDS011;31826;53.572;10.170;2023-07-29T13:56:28;2.60;;;1.25;;
46090;SDS011;31826;53.572;10.170;2023-07-29T13:58:54;4.00;;;1.30;;
46090;SDS011;31826;53.572;10.170;2023-07-29T14:01:19;2.53;;;1.40;;
46090;SDS011;31826;53.572;10.170;2023-07-29T14:03:45;2.58;;;1.35;;
46090;SDS011;31826;53.572;10.170;2023-07-29T14:06:10;2.20;;;1.50;;
46090;SDS011;31826;53.572;10.170;2023-07-29T14:08:36;2.67;;;1.60;;
46090;SDS011;31826;53.572;10.170;2023-07-29T14:11:03;3.65;;;1.45;;
46090;SDS011;31826;53.572;10.170;2023-07-29T14:13:29;2.70;;;1.55;;
46090;SDS011;31826;53.572;10.170;2023-07-29T14:15:54;2.93;;;1.73;;
46090;SDS011;31826;53.572;10.170;2023-07-29T14:18:20;3.17;;;1.43;;
46090;SDS011;31826;53.572;10.170;2023-07-29T14:20:46;3.35;;;1.50;;
46090;SDS011;31826;53.572;10.170;2023-07-29T14:23:11;2.70;;;1.53;;
46090;SDS011;31826;53.572;10.170;2023-07-29T14:25:37;2.30;;;1.40;;
46090;SDS011;31826;53.572;10.170;2023-07-29T14:28:03;1.88;;;1.40;;
46090;SDS011;31826;53.572;10.170;2023-07-29T14:30:29;2.30;;;1.50;;
46090;SDS011;31826;53.572;10.170;2023-07-29T14:32:54;2.70;;;1.50;;
46090;SDS011;31826;53.572;10.170;2023-07-29T14:35:20;4.00;;;2.00;;
46090;SDS011;31826;53.572;10.170;2023-07-29T14:37:46;3.10;;;1.70;;
46090;SDS011;31826;53.572;10.170;2023-07-29T14:40:11;2.17;;;1.43;;
46090;SDS011;31826;53.572;10.170;2023-07-29T14:42:37;2.22;;;1.38;;
46090;SDS011;31826;53.572;10.170;2023-07-29T14:45:02;3.03;;;1.60;;
46090;SDS011;31826;53.572;10.170;2023-07-29T14:47:29;2.58;;;1.42;;
46090;SDS011;31826;53.572;10.170;2023-07-29T14:49:59;4.80;;;1.50;;
46090;SDS011;31826;53.572;10.170;2023-07-29T14:52:25;2.38;;;1.48;;
46090;SDS011;31826;53.572;10.170;2023-07-29T14:54:51;4.63;;;1.60;;
46090;SDS011;31826;53.572;10.170;2023-07-29T14:57:16;2.67;;;1.50;;
46090;SDS011;31826;53.572;10.170;2023-07-29T14:59:42;3.55;;;1.50;;